Time;durP1;ratioP1;P1;durP2;ratioP2;P2;SDS_P1;SDS_P2;PMS_P1;PMS_P2;Temp;Humidity;BMP_temperature;BMP_pressure;BME280_temperature;BME280_humidity;BME280_pressure;Samples;Min_cycle;Max_cycle;Signal;HPM_P1;HPM_P2
2022/05/13 04:01:37;;;;;;;;;;;;;;;20.79;56.28;100539.78;6549547;27;19978;-85
2022/05/13 04:11:33;;;;;;;;;;;;;;;20.82;57.24;100533.81;6548837;27;34946;-85
2022/05/13 04:17:56;;;;;;;;;;;;;;;20.58;59.12;100528.41;6546489;27;34468;-83
2022/05/13 04:20:59;;;;;;;;;;;;;;;20.53;60.54;100528.31;6546630;27;35118;-83
2022/05/13 04:24:04;;;;;;;;;;;;;;;20.39;61.94;100518.66;6546149;27;34954;-83
2022/05/13 04:27:06;;;;;;;;;;;;;;;20.36;62.87;100521.87;6553219;27;34970;-84
2022/05/13 04:30:09;;;;;;;;;;;;;;;20.29;63.66;100521.97;6552258;27;34421;-83
2022/05/13 04:33:14;;;;;;;;;;;;;;;20.27;64.62;100529.63;6547612;27;34511;-83
2022/05/13 04:36:17;;;;;;;;;;;;;;;20.13;65.50;100531.75;6546356;27;35675;-83
2022/05/13 04:39:20;;;;;;;;;;;;;;;20.15;65.43;100529.63;6548300;27;34447;-83
2022/05/13 04:45:44;;;;;;;;;;;;;;;20.25;65.37;100542.69;6547961;27;33977;-83
2022/05/13 04:48:47;;;;;;;;;;;;;;;20.33;65.26;100544.25;6546481;27;32591;-83
2022/05/13 04:51:49;;;;;;;;;;;;;;;20.37;65.54;100537.22;6549166;27;33782;-83
2022/05/13 04:54:52;;;;;;;;;;;;;;;20.41;65.40;100532.91;6548375;27;34967;-83
2022/05/13 04:57:54;;;;;;;;;;;;;;;20.43;65.43;100536.25;6547775;27;34956;-83
2022/05/13 05:00:58;;;;;;;;;;;;;;;20.52;64.98;100539.44;6547856;27;34982;-83
2022/05/13 05:04:01;;;;;;;;;;;;;;;20.53;64.94;100536.53;6546721;27;34307;-83
2022/05/13 05:07:04;;;;;;;;;;;;;;;20.57;64.96;100547.81;6549182;27;34736;-83
2022/05/13 05:10:06;;;;;;;;;;;;;;;20.66;64.80;100564.69;6549666;27;34837;-83
2022/05/13 05:13:16;;;;;;;;;;;;;;;20.68;64.53;100566.13;6549256;27;34698;-83
2022/05/13 05:16:22;;;;;;;;;;;;;;;20.79;64.31;100570.72;6549268;27;34412;-83
2022/05/13 05:19:25;;;;;;;;;;;;;;;;;;6547389;27;34478;-87
2022/05/13 05:22:27;;;;;;;;;;;;;;;20.87;63.79;100566.78;6549256;27;34270;-87
2022/05/13 05:25:30;;;;;;;;;;;;;;;20.88;63.09;100568.44;6548031;27;34672;-87
2022/05/13 05:28:33;;;;;;;;;;;;;;;20.98;62.86;100571.41;6548046;27;34477;-87
2022/05/13 05:31:36;;;;;;;;;;;;;;;21.00;63.03;100569.25;6550040;26;34062;-84
2022/05/13 05:34:39;;;;;;;;;;;;;;;20.97;63.25;100577.09;6549910;27;35240;-84
2022/05/13 05:37:42;;;;;;;;;;;;;;;21.05;63.57;100579.47;6553075;27;34802;-83
2022/05/13 05:40:44;;;;;;;;;;;;;;;20.95;62.74;100582.84;6552017;26;35043;-83
2022/05/13 05:43:47;;;;;;;;;;;;;;;21.03;62.37;100581.59;6564908;26;34418;-83
2022/05/13 05:46:49;;;;;;;;;;;;;;;21.20;61.20;100581.69;6566285;27;32933;-84
2022/05/13 05:49:52;;;;;;;;;;;;;;;21.21;60.66;100583.38;6585205;27;34768;-83
2022/05/13 05:52:54;;;;;;;;;;;;;;;21.41;60.55;100583.81;6581552;27;34214;-83
2022/05/13 05:59:18;;;;;;;;;;;;;;;22.10;57.66;100588.28;6576955;27;34971;-83
2022/05/13 06:02:20;;;;;;;;;;;;;;;22.36;56.07;100595.06;6556928;27;33141;-83
2022/05/13 06:05:24;;;;;;;;;;;;;;;22.64;55.47;100596.87;6557318;27;35451;-83
2022/05/13 06:08:27;;;;;;;;;;;;;;;22.78;54.79;100600.88;6556964;27;34033;-83
2022/05/13 06:11:29;;;;;;;;;;;;;;;22.64;54.44;100600.44;6556749;27;34132;-83
2022/05/13 06:14:32;;;;;;;;;;;;;;;22.52;55.25;100599.72;6576252;27;34229;-83
2022/05/13 06:17:35;;;;;;;;;;;;;;;22.62;54.66;100599.03;6555496;27;32874;-83
2022/05/13 06:20:37;;;;;;;;;;;;;;;22.63;55.32;100606.97;6556420;27;34930;-83
2022/05/13 06:23:42;;;;;;;;;;;;;;;22.66;54.80;100605.66;6555429;27;32602;-83
2022/05/13 06:26:46;;;;;;;;;;;;;;;22.94;54.64;100601.94;6556767;27;33069;-83
2022/05/13 06:29:51;;;;;;;;;;;;;;;23.00;52.98;100606.44;6557227;27;33742;-83
2022/05/13 06:32:54;;;;;;;;;;;;;;;23.07;53.17;100609.81;6556517;27;35221;-82
2022/05/13 06:35:57;;;;;;;;;;;;;;;23.31;53.12;100596.66;6556675;27;34864;-83
2022/05/13 06:39:00;;;;;;;;;;;;;;;23.40;50.85;100597.03;6576324;27;34554;-82
2022/05/13 06:42:03;;;;;;;;;;;;;;;23.37;50.71;100600.31;6576867;27;34750;-82
2022/05/13 06:45:09;;;;;;;;;;;;;;;23.73;50.01;100587.78;6577485;27;34895;-83
2022/05/13 06:48:12;;;;;;;;;;;;;;;23.98;46.95;100597.34;6558901;27;34216;-82
2022/05/13 06:51:15;;;;;;;;;;;;;;;24.08;46.21;100591.94;6556361;27;34657;-83
2022/05/13 06:54:18;;;;;;;;;;;;;;;23.92;46.76;100585.47;6576031;27;34735;-82
2022/05/13 06:57:20;;;;;;;;;;;;;;;23.73;47.11;100584.22;6556063;27;34988;-82
2022/05/13 07:00:23;;;;;;;;;;;;;;;23.38;47.72;100595.63;6573316;27;34125;-82
2022/05/13 07:03:26;;;;;;;;;;;;;;;23.53;48.44;100604.88;6555302;27;34876;-83
2022/05/13 07:06:28;;;;;;;;;;;;;;;23.41;47.71;100603.34;6554215;27;32681;-82
2022/05/13 07:09:31;;;;;;;;;;;;;;;23.36;47.71;100612.38;6574834;27;34947;-83
2022/05/13 07:12:33;;;;;;;;;;;;;;;23.58;47.79;100619.78;6555947;27;34637;-82
2022/05/13 07:15:36;;;;;;;;;;;;;;;23.53;47.83;100620.53;6575605;27;34703;-82
2022/05/13 07:18:40;;;;;;;;;;;;;;;23.68;48.15;100619.87;6554848;27;32954;-83
2022/05/13 07:21:43;;;;;;;;;;;;;;;23.59;47.79;100610.41;6556670;27;33819;-83
2022/05/13 07:24:45;;;;;;;;;;;;;;;23.75;47.70;100615.00;6580267;27;34104;-82
2022/05/13 07:27:48;;;;;;;;;;;;;;;23.93;47.31;100606.41;6555223;27;34552;-83
2022/05/13 07:30:51;;;;;;;;;;;;;;;24.14;46.23;100601.09;6566954;27;34595;-83
2022/05/13 07:33:53;;;;;;;;;;;;;;;24.40;45.44;100600.19;6560121;27;34399;-86
2022/05/13 07:36:56;;;;;;;;;;;;;;;24.32;44.41;100599.84;6575706;27;34271;-87
2022/05/13 07:43:23;;;;;;;;;;;;;;;24.37;44.91;100592.44;6559517;27;34376;-82
2022/05/13 07:46:25;;;;;;;;;;;;;;;24.83;43.99;100605.69;6557826;27;35516;-82
2022/05/13 07:49:28;;;;;;;;;;;;;;;25.16;42.90;100598.19;6576849;27;34597;-82
2022/05/13 07:52:30;;;;;;;;;;;;;;;25.12;42.45;100595.91;6559074;27;34229;-82
2022/05/13 07:55:33;;;;;;;;;;;;;;;25.12;42.10;100595.91;6554605;27;34824;-82
2022/05/13 07:58:36;;;;;;;;;;;;;;;25.23;43.15;100601.50;6575441;27;34457;-83
2022/05/13 08:01:38;;;;;;;;;;;;;;;25.30;42.49;100602.94;6554789;27;34576;-83
2022/05/13 08:04:41;;;;;;;;;;;;;;;25.37;42.80;100599.91;6555381;27;34197;-83
2022/05/13 08:07:44;;;;;;;;;;;;;;;25.29;43.48;100606.75;6574945;27;34425;-83
2022/05/13 08:10:52;;;;;;;;;;;;;;;25.07;43.17;100606.94;6575573;27;34363;-83
2022/05/13 08:13:56;;;;;;;;;;;;;;;25.07;44.41;100617.94;6554606;27;35414;-83
2022/05/13 08:16:58;;;;;;;;;;;;;;;24.99;45.02;100615.69;6576849;27;34250;-84
2022/05/13 08:20:03;;;;;;;;;;;;;;;24.75;45.76;100622.75;6555674;27;32887;-84
2022/05/13 08:23:06;;;;;;;;;;;;;;;24.68;45.80;100620.19;6575521;27;34627;-84
2022/05/13 08:26:08;;;;;;;;;;;;;;;24.45;46.53;100624.16;6555757;27;34217;-84
2022/05/13 08:29:11;;;;;;;;;;;;;;;24.82;46.28;100626.06;6555568;27;34190;-84
2022/05/13 08:32:14;;;;;;;;;;;;;;;24.54;46.34;100635.53;6554302;27;34514;-84
2022/05/13 08:35:17;;;;;;;;;;;;;;;24.50;46.56;100629.72;6553981;27;35315;-84
2022/05/13 08:38:24;;;;;;;;;;;;;;;24.46;46.52;100638.78;6554935;27;34345;-84
2022/05/13 08:41:29;;;;;;;;;;;;;;;24.48;46.59;100636.59;6555752;27;35380;-84
2022/05/13 08:44:32;;;;;;;;;;;;;;;24.28;47.07;100642.72;6575613;27;34174;-84
2022/05/13 08:47:45;;;;;;;;;;;;;;;24.30;47.76;100635.03;6576867;27;34814;-84
2022/05/13 08:51:02;;;;;;;;;;;;;;;24.35;47.23;100637.84;6556190;27;35231;-83
2022/05/13 08:54:08;;;;;;;;;;;;;;;24.36;47.23;100642.25;6576273;27;33874;-84
2022/05/13 08:57:10;;;;;;;;;;;;;;;24.72;47.36;100645.31;6576997;27;34909;-84
2022/05/13 09:00:17;;;;;;;;;;;;;;;25.18;46.50;100645.56;6555983;27;34384;-83
2022/05/13 09:03:25;;;;;;;;;;;;;;;25.61;45.24;100635.25;6576412;27;34085;-84
2022/05/13 09:06:36;;;;;;;;;;;;;;;25.98;44.50;100630.41;6575859;27;34247;-84
2022/05/13 09:09:41;;;;;;;;;;;;;;;25.83;45.19;100624.88;6555053;27;34140;-84
2022/05/13 09:12:52;;;;;;;;;;;;;;;25.55;45.70;100621.44;6575331;27;34233;-84
2022/05/13 09:15:55;;;;;;;;;;;;;;;25.97;45.41;100614.09;6556926;27;34309;-84
2022/05/13 09:19:01;;;;;;;;;;;;;;;26.13;44.85;100621.31;6585102;27;34501;-84
2022/05/13 09:22:06;;;;;;;;;;;;;;;26.06;44.02;100617.97;6558860;27;34476;-84
2022/05/13 09:25:21;;;;;;;;;;;;;;;25.55;45.58;100624.22;6556932;27;34600;-84
2022/05/13 09:28:26;;;;;;;;;;;;;;;25.31;46.00;100610.09;6555954;27;34285;-84
2022/05/13 09:31:30;;;;;;;;;;;;;;;25.07;46.25;100620.72;6575001;27;34147;-84
2022/05/13 09:34:48;;;;;;;;;;;;;;;24.89;47.24;100618.41;6576645;27;35230;-84
2022/05/13 09:37:50;;;;;;;;;;;;;;;25.17;46.01;100611.69;6576975;27;33757;-83
2022/05/13 09:40:56;;;;;;;;;;;;;;;24.81;47.25;100618.91;6561413;27;34233;-83
2022/05/13 09:44:19;;;;;;;;;;;;;;;24.50;48.61;100628.91;6590310;27;34074;-83
2022/05/13 09:47:28;;;;;;;;;;;;;;;24.49;48.73;100625.31;6591046;27;35388;-83
2022/05/13 09:50:50;;;;;;;;;;;;;;;24.35;49.36;100626.84;6571863;27;34935;-82
2022/05/13 09:54:19;;;;;;;;;;;;;;;24.28;50.49;100627.06;6590085;27;34489;-83
2022/05/13 09:57:33;;;;;;;;;;;;;;;24.28;50.46;100631.72;6583568;26;35529;-86
2022/05/13 10:00:37;;;;;;;;;;;;;;;24.47;51.12;100633.00;6556907;27;34145;-86
2022/05/13 10:03:40;;;;;;;;;;;;;;;25.39;48.53;100625.28;6555924;27;32930;-84
2022/05/13 10:06:43;;;;;;;;;;;;;;;25.74;47.87;100621.78;6556542;27;35220;-84
2022/05/13 10:16:44;;;;;;;;;;;;;;;25.59;47.62;100623.66;6556812;27;34185;-84
2022/05/13 10:19:53;;;;;;;;;;;;;;;25.41;48.05;100620.31;6579453;27;34980;-84
2022/05/13 10:23:12;;;;;;;;;;;;;;;25.14;49.71;100628.75;6578043;27;144985;-83
2022/05/13 10:26:15;;;;;;;;;;;;;;;25.06;50.29;100624.53;6576714;27;34912;-83
2022/05/13 10:29:24;;;;;;;;;;;;;;;24.79;50.90;100624.69;6556273;27;34346;-83
2022/05/13 10:32:35;;;;;;;;;;;;;;;24.77;51.51;100617.78;6556101;27;34616;-83
2022/05/13 10:35:49;;;;;;;;;;;;;;;25.09;51.02;100601.12;6575717;27;34955;-83
2022/05/13 10:39:10;;;;;;;;;;;;;;;25.93;48.87;100608.31;6576077;27;34432;-83
2022/05/13 10:42:18;;;;;;;;;;;;;;;25.95;48.64;100605.31;6563486;27;34994;-86
2022/05/13 10:45:25;;;;;;;;;;;;;;;26.41;47.95;100608.88;6565156;27;33668;-87
2022/05/13 10:48:30;;;;;;;;;;;;;;;26.93;45.58;100604.09;6555400;27;32906;-83
2022/05/13 10:51:52;;;;;;;;;;;;;;;27.47;45.03;100592.28;6576091;27;34174;-83
2022/05/13 10:55:19;;;;;;;;;;;;;;;28.61;41.00;100593.06;6555986;27;34547;-83
2022/05/13 10:58:25;;;;;;;;;;;;;;;27.92;41.43;100586.75;6556747;27;36438;-83
2022/05/13 11:01:43;;;;;;;;;;;;;;;26.86;43.73;100595.28;6576595;27;34070;-83
2022/05/13 11:04:48;;;;;;;;;;;;;;;26.43;44.78;100595.59;6575209;27;34542;-83
2022/05/13 11:07:57;;;;;;;;;;;;;;;27.35;43.96;100589.03;6555537;27;34456;-83
2022/05/13 11:11:00;;;;;;;;;;;;;;;28.31;40.87;100594.97;6555639;27;34667;-83
2022/05/13 11:14:23;;;;;;;;;;;;;;;28.57;40.17;100595.56;6556055;27;35488;-83
2022/05/13 11:17:29;;;;;;;;;;;;;;;28.75;38.65;100585.69;6575762;27;34650;-83
2022/05/13 11:20:34;;;;;;;;;;;;;;;29.70;36.50;100589.50;6576277;27;33896;-83
2022/05/13 11:27:25;;;;;;;;;;;;;;;31.46;33.27;100561.75;6573795;27;34696;-84
2022/05/13 11:30:28;;;;;;;;;;;;;;;31.15;32.81;100562.44;6553886;27;33465;-84
2022/05/13 11:33:49;;;;;;;;;;;;;;;31.08;32.73;100559.22;6574243;27;34343;-83
2022/05/13 11:37:02;;;;;;;;;;;;;;;32.02;31.95;100557.62;6567785;27;35001;-83
2022/05/13 11:40:38;;;;;;;;;;;;;;;30.18;34.89;100560.66;6577348;26;33720;-83
2022/05/13 11:43:57;;;;;;;;;;;;;;;29.03;37.53;100561.84;6575964;26;35513;-83
2022/05/13 11:47:14;;;;;;;;;;;;;;;27.90;39.45;100556.56;6576164;26;35454;-83
2022/05/13 11:50:16;;;;;;;;;;;;;;;27.21;41.41;100563.94;6574306;27;34512;-83
2022/05/13 11:53:38;;;;;;;;;;;;;;;27.34;40.64;100555.00;6552526;27;33256;-83
2022/05/13 11:56:43;;;;;;;;;;;;;;;26.65;42.73;100564.12;6553241;27;32719;-83
2022/05/13 11:59:47;;;;;;;;;;;;;;;26.00;43.69;100564.75;6573114;27;34275;-83
2022/05/13 12:03:01;;;;;;;;;;;;;;;25.86;43.42;100563.63;6588207;26;31909;-83
2022/05/13 12:06:11;;;;;;;;;;;;;;;25.50;43.54;100558.03;6573927;27;34332;-87
2022/05/13 12:09:14;;;;;;;;;;;;;;;25.27;44.30;100567.66;6573982;27;33944;-83
2022/05/13 12:12:17;;;;;;;;;;;;;;;24.78;44.38;100567.13;6553816;27;33531;-83
2022/05/13 12:15:20;;;;;;;;;;;;;;;24.44;44.92;100584.00;6575507;27;33990;-82
2022/05/13 12:18:32;;;;;;;;;;;;;;;24.27;44.67;100578.59;6575357;27;34244;-83
2022/05/13 12:21:47;;;;;;;;;;;;;;;24.34;45.21;100584.72;6575376;27;34193;-83
2022/05/13 12:24:53;;;;;;;;;;;;;;;24.37;44.95;100586.13;6555848;27;34433;-83
2022/05/13 12:28:01;;;;;;;;;;;;;;;24.19;44.91;100588.19;6574182;27;33960;-84
2022/05/13 12:31:22;;;;;;;;;;;;;;;24.11;44.96;100579.59;6573453;27;34370;-83
2022/05/13 12:37:54;;;;;;;;;;;;;;;23.88;42.03;100580.78;6554261;27;33206;-83
2022/05/13 12:41:10;;;;;;;;;;;;;;;23.76;43.06;100578.19;6573426;27;34189;-84
2022/05/13 12:44:25;;;;;;;;;;;;;;;23.64;44.56;100572.00;6553202;27;36000;-83
2022/05/13 12:47:29;;;;;;;;;;;;;;;23.83;44.10;100558.72;6555078;27;33567;-84
2022/05/13 12:50:38;;;;;;;;;;;;;;;23.90;42.99;100556.59;6556326;27;35208;-84
2022/05/13 12:53:47;;;;;;;;;;;;;;;24.09;42.42;100551.53;6554888;27;37294;-88
2022/05/13 12:56:53;;;;;;;;;;;;;;;23.89;41.93;100557.69;6575470;27;34650;-88
2022/05/13 12:59:57;;;;;;;;;;;;;;;23.80;41.98;100556.50;6575363;27;34208;-88
2022/05/13 13:03:03;;;;;;;;;;;;;;;23.75;42.30;100557.28;6555758;27;32402;-84
2022/05/13 13:07:34;;;;;;;0.70;0.52;;;;;;;24.64;42.27;100559.34;5566797;32;191144;-82
2022/05/13 13:10:48;;;;;;;1.17;1.00;;;;;;;24.64;42.27;100559.34;5546851;32;31939;-82
2022/05/13 13:14:06;;;;;;;3.08;1.23;;;;;;;24.35;42.43;100555.28;5557875;32;34480;-82
2022/05/13 13:17:44;;;;;;;0.97;0.87;;;;;;;24.36;42.27;100548.66;5557949;32;33450;-82
2022/05/13 13:20:56;;;;;;;0.88;0.88;;;;;;;24.12;42.93;100545.50;5554463;32;33081;-86
2022/05/13 13:24:00;;;;;;;4.07;1.20;;;;;;;23.72;44.27;100544.91;5552615;32;31559;-82
2022/05/13 13:27:05;;;;;;;1.08;0.98;;;;;;;23.30;46.08;100542.78;5544322;32;34426;-83
2022/05/13 13:30:17;;;;;;;1.20;1.10;;;;;;;22.92;46.92;100540.12;5545200;32;34220;-82
2022/05/13 13:33:20;;;;;;;0.90;0.90;;;;;;;22.69;47.68;100542.00;5554036;32;32401;-83
2022/05/13 13:36:31;;;;;;;1.20;1.08;;;;;;;22.61;47.72;100523.25;5543501;32;32968;-82
2022/05/13 13:39:56;;;;;;;0.90;0.82;;;;;;;22.70;47.96;100512.66;5543634;32;32422;-82
2022/05/13 13:43:24;;;;;;;1.35;1.25;;;;;;;22.80;48.14;100507.31;5547548;32;33451;-82
2022/05/13 13:46:35;;;;;;;0.82;0.77;;;;;;;22.82;48.98;100507.87;5541397;32;35113;-83
2022/05/13 13:49:41;;;;;;;1.62;1.30;;;;;;;22.64;49.94;100504.38;5552852;32;33096;-82
2022/05/13 13:52:44;;;;;;;1.45;0.93;;;;;;;22.73;49.35;100498.44;5555449;32;32435;-82
2022/05/13 13:55:49;;;;;;;1.62;1.05;;;;;;;22.31;49.33;100483.34;5560324;32;33004;-82
2022/05/13 13:59:16;;;;;;;1.27;1.17;;;;;;;22.09;51.28;100494.25;5557863;32;33708;-82
2022/05/13 14:02:35;;;;;;;0.68;0.60;;;;;;;21.96;52.62;100495.41;5545142;32;33070;-82
2022/05/13 14:05:42;;;;;;;1.08;0.98;;;;;;;21.95;52.58;100471.81;5550453;32;35639;-82
2022/05/13 14:08:50;;;;;;;2.87;1.23;;;;;;;21.85;52.39;100462.59;5541255;32;32982;-82
2022/05/13 14:11:56;;;;;;;2.20;1.08;;;;;;;21.59;55.44;100475.91;5542742;32;33918;-82
2022/05/13 14:15:21;;;;;;;0.80;0.80;;;;;;;21.36;59.23;100489.72;5548401;32;34871;-81
2022/05/13 14:18:24;;;;;;;1.48;0.90;;;;;;;20.90;63.96;100478.72;5549738;32;33941;-82
2022/05/13 14:21:32;;;;;;;2.53;1.30;;;;;;;20.57;65.01;100480.25;5547026;32;32227;-81
2022/05/13 14:24:36;;;;;;;2.60;1.37;;;;;;;20.58;65.46;100489.28;5529840;32;33853;-81
2022/05/13 14:27:38;;;;;;;1.50;1.40;;;;;;;20.98;65.70;100480.25;5541441;32;33773;-81
2022/05/13 14:30:49;;;;;;;1.23;1.12;;;;;;;21.35;63.99;100486.12;5541893;32;32345;-81
2022/05/13 14:33:54;;;;;;;1.50;1.40;;;;;;;21.59;61.16;100461.38;5549578;32;32062;-81
2022/05/13 14:37:00;;;;;;;1.45;0.98;;;;;;;21.89;59.27;100467.34;5535364;32;32298;-82
2022/05/13 14:40:11;;;;;;;0.55;0.55;;;;;;;22.23;56.41;100436.31;5529080;32;34432;-81
2022/05/13 14:43:20;;;;;;;1.20;1.10;;;;;;;22.22;54.37;100416.28;5527665;32;32332;-82
2022/05/13 14:46:30;;;;;;;0.40;0.40;;;;;;;22.73;53.87;100405.94;5527733;32;32145;-81
2022/05/13 14:49:35;;;;;;;0.73;0.73;;;;;;;23.09;53.03;100404.41;5545652;32;35081;-81
2022/05/13 14:52:49;;;;;;;3.08;0.82;;;;;;;23.49;50.84;100394.88;5538295;32;32320;-80
2022/05/13 14:55:55;;;;;;;0.77;0.60;;;;;;;23.50;50.04;100407.50;5527276;32;32494;-81
2022/05/13 14:59:00;;;;;;;0.70;0.70;;;;;;;22.97;52.05;100413.91;5526805;32;32737;-82
2022/05/13 15:02:14;;;;;;;0.80;0.80;;;;;;;23.05;49.66;100416.19;5528043;32;33799;-81
2022/05/13 15:05:18;;;;;;;0.60;0.60;;;;;;;23.12;50.91;100427.78;5526864;32;33604;-85
2022/05/13 15:08:34;;;;;;;2.42;0.95;;;;;;;23.05;52.32;100425.25;5528764;32;34709;-86
2022/05/13 15:11:37;;;;;;;0.75;0.65;;;;;;;23.06;51.32;100431.56;5527721;32;32259;-82
2022/05/13 15:14:40;;;;;;;0.82;0.80;;;;;;;23.34;51.63;100430.44;5529002;32;33856;-82
2022/05/13 15:17:50;;;;;;;0.90;0.90;;;;;;;23.15;51.17;100431.94;5529289;32;33632;-82
2022/05/13 15:20:53;;;;;;;1.73;0.80;;;;;;;22.84;52.54;100423.34;5528194;32;31991;-82
2022/05/13 15:23:56;;;;;;;0.40;0.40;;;;;;;22.57;54.20;100417.81;5534552;32;33480;-85
2022/05/13 15:27:01;;;;;;;0.52;0.52;;;;;;;22.36;52.72;100420.31;5534878;32;33855;-83
2022/05/13 15:30:06;;;;;;;0.85;0.82;;;;;;;22.14;53.83;100420.28;5527860;32;34269;-83
2022/05/13 15:33:09;;;;;;;0.62;0.62;;;;;;;22.12;54.76;100421.62;5528518;32;33786;-83
2022/05/13 15:36:21;;;;;;;1.95;1.08;;;;;;;22.12;54.21;100427.09;5530251;32;32436;-83
2022/05/13 15:39:24;;;;;;;0.90;0.90;;;;;;;22.20;54.47;100421.22;5528367;32;32533;-83
2022/05/13 15:42:27;;;;;;;0.90;0.90;;;;;;;22.12;54.04;100414.22;5530309;32;33924;-83
2022/05/13 15:45:33;;;;;;;1.25;1.15;;;;;;;22.11;53.27;100415.31;5531042;32;33425;-82
2022/05/13 15:48:35;;;;;;;1.37;0.88;;;;;;;22.26;52.74;100406.50;5527206;32;34192;-82
